Time;durP1;ratioP1;P1;durP2;ratioP2;P2;SDS_P1;SDS_P2;PMS_P1;PMS_P2;Temp;Humidity;BMP_temperature;BMP_pressure;BME280_temperature;BME280_humidity;BME280_pressure;Samples;Min_cycle;Max_cycle;Signal;HPM_P1;HPM_P2
2023/05/18 00:00:23;;;;;;;13.23;4.80;;;;;;;42.24;36.39;101089.31;5056030;28;20529;-86
2023/05/18 00:02:49;;;;;;;19.40;4.50;;;;;;;42.20;36.35;101082.91;5055593;28;20936;-86
2023/05/18 00:05:17;;;;;;;11.33;5.20;;;;;;;42.18;36.43;101082.44;5074459;28;20433;-86
2023/05/18 00:07:44;;;;;;;10.97;4.20;;;;;;;42.13;36.27;101071.72;5074624;28;20445;-86
2023/05/18 00:10:10;;;;;;;10.30;4.97;;;;;;;42.21;36.36;101075.53;5056232;28;20517;-86
2023/05/18 00:12:37;;;;;;;8.20;3.83;;;;;;;42.20;36.54;101077.47;5074469;28;20453;-85
2023/05/18 00:15:03;;;;;;;11.70;4.30;;;;;;;42.20;36.49;101068.47;5055982;28;20422;-84
2023/05/18 00:17:30;;;;;;;14.10;6.23;;;;;;;42.17;36.59;101050.84;5074481;28;20836;-84
2023/05/18 00:19:57;;;;;;;13.60;4.20;;;;;;;42.12;36.41;101049.09;5055999;28;20442;-86
2023/05/18 00:22:25;;;;;;;18.70;4.60;;;;;;;42.10;36.36;101048.63;5056221;28;20436;-86
2023/05/18 00:24:51;;;;;;;10.03;3.50;;;;;;;42.14;36.63;101035.13;5055834;28;20480;-85
2023/05/18 00:27:17;;;;;;;11.30;4.77;;;;;;;42.18;36.95;101033.38;5056028;28;20449;-84
2023/05/18 00:29:43;;;;;;;17.80;6.00;;;;;;;42.10;37.13;101036.91;5055312;28;20483;-85
2023/05/18 00:32:09;;;;;;;12.77;5.27;;;;;;;42.16;37.32;101037.53;5052599;28;20572;-86
2023/05/18 00:34:35;;;;;;;14.00;5.30;;;;;;;42.12;36.91;101034.69;5052026;28;20719;-86
2023/05/18 00:37:01;;;;;;;19.33;7.53;;;;;;;42.12;36.97;101024.56;5053912;28;20415;-86
2023/05/18 00:39:27;;;;;;;18.03;4.77;;;;;;;42.04;36.89;101021.88;5051671;28;20935;-86
2023/05/18 00:41:53;;;;;;;25.30;4.97;;;;;;;41.99;36.93;101014.72;5052100;28;20234;-86
2023/05/18 00:44:19;;;;;;;13.50;3.73;;;;;;;42.03;37.32;101026.53;5051872;28;20227;-86
2023/05/18 00:46:45;;;;;;;12.83;5.10;;;;;;;42.08;37.21;101028.28;5053625;28;20927;-86
2023/05/18 00:49:11;;;;;;;10.10;4.40;;;;;;;42.10;37.38;101036.91;5051580;28;20509;-87
2023/05/18 00:51:38;;;;;;;15.93;5.10;;;;;;;42.16;36.93;101041.06;5052002;28;20449;-86
2023/05/18 00:54:05;;;;;;;14.77;5.37;;;;;;;42.15;37.21;101039.44;5051787;28;20425;-87
2023/05/18 00:56:34;;;;;;;17.30;4.50;;;;;;;42.15;36.85;101031.28;5052145;28;20454;-86
2023/05/18 00:59:02;;;;;;;11.90;5.00;;;;;;;42.15;37.18;101034.00;5052065;28;20427;-86
2023/05/18 01:01:35;;;;;;;12.80;6.30;;;;;;;42.13;37.46;101025.38;5052146;28;20427;-86
2023/05/18 01:04:03;;;;;;;18.93;5.97;;;;;;;42.17;37.18;101026.31;5040338;28;20494;-86
2023/05/18 01:06:31;;;;;;;12.10;4.83;;;;;;;42.16;37.34;101018.44;5052384;28;20426;-86
2023/05/18 01:09:12;;;;;;;9.67;4.03;;;;;;;42.11;37.30;101006.63;5051812;28;20419;-86
2023/05/18 01:11:54;;;;;;;8.90;4.00;;;;;;;42.14;37.16;101010.59;5051703;28;20429;-86
2023/05/18 01:14:38;;;;;;;10.60;4.63;;;;;;;42.16;37.05;101013.00;5050460;28;20477;-86
2023/05/18 01:17:26;;;;;;;11.87;4.30;;;;;;;42.17;36.99;101023.59;5041537;28;20812;-86
2023/05/18 01:20:17;;;;;;;14.23;4.87;;;;;;;42.16;37.63;101032.06;5051634;28;20437;-86
2023/05/18 01:22:55;;;;;;;20.90;4.73;;;;;;;42.20;37.16;101028.38;5051300;28;20489;-86
2023/05/18 01:25:32;;;;;;;15.83;4.60;;;;;;;42.18;37.32;101018.97;5051569;28;20426;-86
2023/05/18 01:28:07;;;;;;;10.73;4.40;;;;;;;42.15;36.98;101023.09;5051575;28;20451;-86
2023/05/18 01:30:39;;;;;;;17.40;6.37;;;;;;;42.17;36.48;101026.31;5051187;28;21001;-86
2023/05/18 01:33:12;;;;;;;20.53;5.83;;;;;;;42.15;36.78;101028.56;5051366;28;20553;-86
2023/05/18 01:35:46;;;;;;;16.63;5.20;;;;;;;42.12;36.58;101021.84;5051276;28;20946;-86
2023/05/18 01:38:18;;;;;;;15.37;5.57;;;;;;;42.16;36.50;101019.28;5051221;28;20429;-86
2023/05/18 01:41:20;;;;;;;12.53;5.33;;;;;;;42.09;36.47;101018.97;5050916;28;20435;-86
2023/05/18 01:44:19;;;;;;;11.80;4.43;;;;;;;42.11;35.95;101019.44;5050708;28;20460;-87
2023/05/18 01:46:52;;;;;;;15.13;4.90;;;;;;;42.16;36.28;101016.53;5017946;28;20521;-86
2023/05/18 01:49:36;;;;;;;12.57;3.80;;;;;;;42.11;36.39;101020.25;5039176;28;20431;-86
2023/05/18 01:52:13;;;;;;;20.27;4.77;;;;;;;42.11;36.56;101012.09;5050332;28;20437;-86
2023/05/18 01:54:44;;;;;;;13.00;5.03;;;;;;;42.10;36.46;101002.28;5050996;28;20445;-86
2023/05/18 01:57:10;;;;;;;15.00;6.60;;;;;;;42.15;36.40;100998.56;5050450;28;20450;-86
2023/05/18 01:59:38;;;;;;;24.23;5.10;;;;;;;42.07;36.79;100975.72;5050778;28;20426;-86
2023/05/18 02:02:04;;;;;;;20.03;6.60;;;;;;;42.08;36.77;100987.41;5050397;28;20815;-86
2023/05/18 02:04:30;;;;;;;14.80;6.10;;;;;;;42.07;36.82;100980.38;5053755;28;20469;-86
2023/05/18 02:06:56;;;;;;;12.07;5.30;;;;;;;42.10;36.86;100993.31;5050193;28;20432;-86
2023/05/18 02:09:22;;;;;;;15.60;5.93;;;;;;;42.11;37.06;100982.09;5050718;28;20543;-86
2023/05/18 02:11:48;;;;;;;19.80;5.33;;;;;;;42.09;36.96;100976.16;5050764;28;20458;-86
2023/05/18 02:14:15;;;;;;;15.03;6.23;;;;;;;42.10;36.93;100976.97;5050729;28;20470;-85
2023/05/18 02:16:41;;;;;;;17.20;4.87;;;;;;;42.05;36.70;100975.25;5050524;28;20258;-86
2023/05/18 02:19:07;;;;;;;13.43;5.10;;;;;;;42.08;37.02;100980.03;5050615;28;20816;-86
2023/05/18 02:21:34;;;;;;;9.23;3.73;;;;;;;42.05;37.10;100977.97;5049967;28;20931;-86
2023/05/18 02:24:00;;;;;;;7.63;3.93;;;;;;;42.06;36.89;100976.03;5050434;28;20451;-86
2023/05/18 02:26:26;;;;;;;17.83;4.30;;;;;;;42.09;36.86;100983.53;5050470;28;20449;-86
2023/05/18 02:28:52;;;;;;;11.80;4.57;;;;;;;42.03;36.92;100976.69;5050818;28;20422;-86
2023/05/18 02:31:18;;;;;;;13.70;4.30;;;;;;;42.04;37.17;100973.63;5049995;28;20326;-86
2023/05/18 02:33:44;;;;;;;9.77;4.83;;;;;;;42.04;37.14;100976.34;5050402;28;20506;-87
2023/05/18 02:36:12;;;;;;;9.10;3.90;;;;;;;42.03;37.10;100973.97;5050450;28;20430;-87
2023/05/18 02:38:42;;;;;;;14.10;4.07;;;;;;;42.07;37.21;100988.53;5050578;28;20450;-86
2023/05/18 02:41:09;;;;;;;12.43;4.60;;;;;;;42.11;37.17;100984.81;5050891;28;20434;-87
2023/05/18 02:43:36;;;;;;;15.27;5.77;;;;;;;42.09;37.07;100980.81;5050483;28;20487;-86
2023/05/18 02:46:02;;;;;;;11.40;7.13;;;;;;;42.10;37.38;100982.41;5037562;28;20427;-86
2023/05/18 02:48:28;;;;;;;10.63;5.20;;;;;;;42.05;37.65;100977.16;5052082;28;20439;-86
2023/05/18 02:50:54;;;;;;;15.30;5.40;;;;;;;42.01;37.34;100963.41;5054235;28;20871;-86
2023/05/18 02:53:21;;;;;;;15.53;4.97;;;;;;;42.02;37.12;100986.81;5051875;28;20418;-86
2023/05/18 02:55:48;;;;;;;14.90;5.37;;;;;;;42.04;37.72;100979.09;5037802;28;20485;-86
2023/05/18 02:58:16;;;;;;;9.83;6.20;;;;;;;42.00;37.51;100982.81;5050421;28;20814;-86
2023/05/18 03:00:42;;;;;;;19.20;4.23;;;;;;;42.01;37.17;100989.88;5050004;28;20437;-86
2023/05/18 03:03:14;;;;;;;16.30;4.80;;;;;;;41.95;37.24;100992.00;5050298;28;20442;-86
2023/05/18 03:05:41;;;;;;;8.20;4.53;;;;;;;41.92;37.60;100987.19;5050360;28;20431;-86
2023/05/18 03:08:09;;;;;;;15.50;6.70;;;;;;;41.89;37.66;100992.50;5050225;28;20451;-86
2023/05/18 03:10:36;;;;;;;14.83;6.30;;;;;;;41.96;37.12;100993.56;5050522;28;20422;-86
2023/05/18 03:13:02;;;;;;;14.27;4.50;;;;;;;41.99;36.49;101003.00;5050244;28;20860;-86
2023/05/18 03:15:31;;;;;;;20.23;6.07;;;;;;;41.89;36.43;100987.88;5050407;28;20938;-86
2023/05/18 03:18:00;;;;;;;14.37;4.33;;;;;;;41.85;36.45;100976.81;5050409;28;20419;-86
2023/05/18 03:20:26;;;;;;;17.00;7.10;;;;;;;41.72;36.91;100969.66;5052846;28;20947;-86
2023/05/18 03:22:52;;;;;;;12.90;5.17;;;;;;;41.72;36.48;100975.13;5049831;28;20515;-86
2023/05/18 03:25:18;;;;;;;16.30;5.07;;;;;;;41.71;36.78;100970.78;5049905;28;20462;-86
2023/05/18 03:27:44;;;;;;;9.23;4.50;;;;;;;41.51;36.90;100974.28;5049205;28;20492;-86
2023/05/18 03:30:11;;;;;;;16.37;6.30;;;;;;;41.51;37.22;100972.38;5049995;28;20204;-86
2023/05/18 03:32:37;;;;;;;12.93;5.87;;;;;;;41.49;36.94;100968.34;5065595;28;20507;-86
2023/05/18 03:35:04;;;;;;;13.20;5.00;;;;;;;41.39;36.53;100979.63;5053546;28;20949;-86
2023/05/18 03:37:30;;;;;;;9.73;4.30;;;;;;;41.49;36.53;100979.25;5054448;28;20490;-86
2023/05/18 03:40:16;;;;;;;13.90;4.30;;;;;;;41.54;35.96;100995.41;5051375;28;20426;-86
2023/05/18 03:42:42;;;;;;;16.03;5.10;;;;;;;41.64;36.50;101007.84;5050052;28;20498;-87
2023/05/18 03:45:09;;;;;;;11.83;5.37;;;;;;;41.70;36.76;101015.50;5056463;28;20837;-86
2023/05/18 03:47:36;;;;;;;20.10;10.10;;;;;;;41.62;37.60;101013.66;5056574;28;20448;-86
2023/05/18 03:50:03;;;;;;;12.97;10.47;;;;;;;41.48;38.73;100999.44;5056825;28;20814;-86
2023/05/18 03:52:29;;;;;;;17.93;12.53;;;;;;;41.45;39.27;101005.56;5056631;28;20449;-86
2023/05/18 03:54:55;;;;;;;20.83;13.43;;;;;;;41.36;39.55;101008.28;5060306;28;20437;-86
2023/05/18 03:57:21;;;;;;;19.97;13.90;;;;;;;41.39;38.88;101001.41;5061219;28;20467;-86
2023/05/18 03:59:47;;;;;;;14.50;10.93;;;;;;;41.38;39.58;101024.31;5056124;28;20445;-86
2023/05/18 04:02:15;;;;;;;28.40;12.40;;;;;;;41.44;38.91;101020.28;5056126;28;20418;-86
2023/05/18 04:04:44;;;;;;;17.60;12.20;;;;;;;41.50;38.97;101032.59;5056291;28;20196;-86
2023/05/18 04:07:20;;;;;;;14.03;9.43;;;;;;;41.51;38.64;101053.25;5056491;28;20458;-86
2023/05/18 04:09:47;;;;;;;16.57;9.53;;;;;;;41.60;38.43;101064.91;5056261;28;20941;-86
2023/05/18 04:12:13;;;;;;;21.13;10.20;;;;;;;41.56;38.83;101075.66;5056341;28;20437;-86
2023/05/18 04:14:42;;;;;;;14.70;8.70;;;;;;;41.43;38.92;101073.13;5055915;28;20461;-86
2023/05/18 04:17:08;;;;;;;24.17;7.23;;;;;;;41.31;37.91;101071.88;5074336;28;20567;-86
2023/05/18 04:19:36;;;;;;;24.50;10.80;;;;;;;41.30;37.55;101075.69;5058189;28;20445;-86
2023/05/18 04:22:05;;;;;;;16.97;6.47;;;;;;;41.29;37.91;101082.28;5055790;28;20469;-86
2023/05/18 04:24:35;;;;;;;20.63;6.53;;;;;;;41.19;36.35;101079.91;5055655;28;20474;-86
2023/05/18 04:27:02;;;;;;;13.63;5.53;;;;;;;41.22;36.29;101073.00;5056298;28;20816;-86
2023/05/18 04:29:28;;;;;;;16.27;5.00;;;;;;;41.12;37.50;101068.69;5055429;28;20441;-86
2023/05/18 04:32:00;;;;;;;22.07;7.00;;;;;;;41.01;37.67;101062.03;5061362;28;20591;-85
2023/05/18 04:34:28;;;;;;;25.80;9.47;;;;;;;40.68;38.40;101056.25;5055736;28;20422;-86
2023/05/18 04:36:54;;;;;;;27.50;10.83;;;;;;;40.77;39.25;101068.75;5055830;28;20456;-86
2023/05/18 04:39:22;;;;;;;24.00;7.37;;;;;;;40.77;38.77;101089.69;5055409;28;20410;-86
2023/05/18 04:41:57;;;;;;;21.27;6.50;;;;;;;40.73;38.94;101094.97;5055895;28;20540;-86
2023/05/18 04:44:33;;;;;;;22.50;7.30;;;;;;;40.69;39.02;101099.44;5055553;28;20452;-86
2023/05/18 04:47:00;;;;;;;16.93;5.60;;;;;;;40.52;38.79;101077.72;5055302;28;20901;-86
2023/05/18 04:49:27;;;;;;;20.43;7.30;;;;;;;40.33;38.61;101085.31;5055679;28;20425;-86
2023/05/18 04:51:55;;;;;;;16.50;5.20;;;;;;;40.24;38.66;101091.53;5055161;28;20437;-86
2023/05/18 04:54:31;;;;;;;17.57;5.10;;;;;;;40.14;38.93;101088.31;5055338;28;21048;-86
2023/05/18 04:56:58;;;;;;;25.70;9.80;;;;;;;40.14;39.28;101085.59;5055015;28;20480;-86
2023/05/18 04:59:25;;;;;;;20.47;8.27;;;;;;;40.16;39.36;101094.25;5055373;28;20422;-86
2023/05/18 05:01:52;;;;;;;22.33;10.30;;;;;;;40.33;39.40;101183.16;5055143;28;20519;-86
2023/05/18 05:04:20;;;;;;;32.90;10.33;;;;;;;40.31;40.09;101273.19;5055707;28;20471;-86
2023/05/18 05:06:46;;;;;;;22.43;7.67;;;;;;;39.87;40.30;101246.88;5054780;28;20480;-86
2023/05/18 05:09:13;;;;;;;22.50;5.77;;;;;;;39.43;39.25;101298.13;5055146;28;20414;-86
2023/05/18 05:11:40;;;;;;;14.93;5.03;;;;;;;38.74;39.00;101285.75;5055167;28;20422;-86
2023/05/18 05:14:06;;;;;;;10.50;2.90;;;;;;;38.66;38.13;101266.31;5055064;28;20499;-86
2023/05/18 05:16:32;;;;;;;8.40;2.57;;;;;;;39.01;37.32;101285.72;5054827;28;20833;-86
2023/05/18 05:18:58;;;;;;;9.47;3.73;;;;;;;39.00;36.98;101289.53;5058298;28;20528;-86
2023/05/18 05:21:24;;;;;;;8.43;2.50;;;;;;;39.26;36.73;101286.31;5055856;28;20512;-86
2023/05/18 05:23:51;;;;;;;7.90;2.50;;;;;;;39.41;35.26;101288.66;5054831;28;20195;-86
2023/05/18 05:26:18;;;;;;;8.37;3.20;;;;;;;39.47;35.93;101293.69;5054627;28;20421;-86
2023/05/18 05:28:44;;;;;;;13.97;3.50;;;;;;;39.53;35.41;101288.13;5056186;28;20942;-86
2023/05/18 05:31:10;;;;;;;8.40;2.70;;;;;;;39.24;35.17;101281.19;5055777;28;20425;-86
2023/05/18 05:33:36;;;;;;;12.67;3.47;;;;;;;38.99;34.92;101282.50;5054890;28;20425;-86
2023/05/18 05:36:04;;;;;;;7.80;2.73;;;;;;;39.20;34.27;101278.28;5054477;28;20422;-86
2023/05/18 05:38:30;;;;;;;6.60;2.50;;;;;;;39.20;34.56;101267.41;5054808;28;20489;-86
2023/05/18 05:40:57;;;;;;;7.60;2.70;;;;;;;39.07;35.01;101270.13;5056501;28;20433;-86
2023/05/18 05:43:23;;;;;;;7.03;2.50;;;;;;;38.54;36.04;101243.53;5054669;28;20469;-86
2023/05/18 05:45:49;;;;;;;12.17;3.47;;;;;;;38.16;36.70;101239.06;5054368;28;20661;-86
2023/05/18 05:48:15;;;;;;;9.03;3.97;;;;;;;38.48;35.78;101218.44;5054736;28;20425;-86
2023/05/18 05:50:41;;;;;;;8.93;3.37;;;;;;;38.64;36.35;101225.16;5055890;28;20443;-86
2023/05/18 05:53:07;;;;;;;10.53;3.00;;;;;;;38.72;35.37;101220.94;5054270;28;20875;-86
2023/05/18 05:55:39;;;;;;;8.80;2.70;;;;;;;38.76;35.54;101226.59;5055266;28;20501;-86
2023/05/18 05:58:06;;;;;;;9.60;3.37;;;;;;;38.72;36.32;101223.66;5054531;28;20434;-86
2023/05/18 06:00:32;;;;;;;8.50;3.97;;;;;;;38.74;36.06;101224.19;5053741;28;20418;-86
2023/05/18 06:02:59;;;;;;;10.90;2.70;;;;;;;38.90;36.17;101227.34;5054417;28;20505;-86
2023/05/18 06:05:25;;;;;;;7.80;3.13;;;;;;;39.13;35.56;101229.03;5054087;28;20457;-86
2023/05/18 06:07:51;;;;;;;8.40;3.83;;;;;;;38.84;35.99;101221.25;5054476;28;20441;-86
2023/05/18 06:10:17;;;;;;;8.33;3.27;;;;;;;38.99;35.76;101211.97;5064120;28;20437;-86
2023/05/18 06:12:43;;;;;;;11.97;4.03;;;;;;;38.94;36.49;101212.09;5054221;28;20428;-86
2023/05/18 06:15:09;;;;;;;11.17;3.93;;;;;;;39.13;36.37;101209.22;5054191;28;20949;-86
2023/05/18 06:17:36;;;;;;;12.53;4.00;;;;;;;39.00;36.18;101196.50;5053522;28;20222;-86
2023/05/18 06:20:03;;;;;;;17.03;8.60;;;;;;;38.82;36.64;101190.91;5061913;28;20449;-86
2023/05/18 06:22:29;;;;;;;16.00;7.43;;;;;;;38.70;36.53;101174.34;5054112;28;20973;-86
2023/05/18 06:24:55;;;;;;;10.87;4.90;;;;;;;38.76;36.56;101177.78;5054002;28;20475;-86
2023/05/18 06:27:22;;;;;;;14.33;5.00;;;;;;;38.59;37.08;101160.19;5062296;28;20528;-84
2023/05/18 06:29:47;;;;;;;9.77;4.33;;;;;;;38.78;36.77;101168.22;5064387;28;20175;-84
2023/05/18 06:32:14;;;;;;;9.90;4.37;;;;;;;38.75;36.63;101168.03;5053291;28;20463;-85
2023/05/18 06:34:40;;;;;;;10.10;4.43;;;;;;;38.79;36.34;101179.88;5053812;28;20972;-85
2023/05/18 06:37:06;;;;;;;10.23;4.73;;;;;;;38.87;36.46;101185.38;5049587;28;20428;-85
2023/05/18 06:39:32;;;;;;;9.90;4.00;;;;;;;38.94;35.99;101193.09;5056912;28;20517;-84
2023/05/18 06:41:58;;;;;;;14.13;4.27;;;;;;;38.94;35.93;101196.63;5053571;28;20445;-85
2023/05/18 06:44:23;;;;;;;9.37;5.03;;;;;;;38.94;35.81;101193.91;5053351;28;20511;-84
2023/05/18 06:46:49;;;;;;;9.33;3.60;;;;;;;38.96;35.83;101215.28;5058434;28;20465;-84
2023/05/18 06:49:15;;;;;;;13.30;6.20;;;;;;;39.14;35.87;101233.34;5052350;28;20984;-82
2023/05/18 06:52:20;;;;;;;;;;;;;;;;;;;;;
2023/05/18 06:54:46;;;;;;;11.17;4.80;;;;;;;39.05;35.24;101216.19;5068780;28;20429;-86
2023/05/18 06:57:15;;;;;;;10.30;5.00;;;;;;;39.21;35.26;101230.22;5053838;28;20520;-87
2023/05/18 06:59:41;;;;;;;12.20;5.40;;;;;;;39.25;35.15;101222.28;5060313;28;20426;-85
2023/05/18 07:02:07;;;;;;;13.37;4.73;;;;;;;39.21;35.18;101220.16;5053910;28;20437;-84
2023/05/18 07:04:33;;;;;;;12.63;6.10;;;;;;;39.13;35.62;101217.38;5053207;28;21038;-87
2023/05/18 07:06:59;;;;;;;12.70;5.30;;;;;;;39.30;35.10;101230.31;5053931;28;20844;-86
2023/05/18 07:09:27;;;;;;;9.80;4.27;;;;;;;39.05;35.23;101229.75;5057429;28;20964;-86
2023/05/18 07:12:28;;;;;;;;;;;;;;;;;;;;;
2023/05/18 07:15:16;;;;;;;11.13;5.83;;;;;;;39.07;35.52;101199.59;5006848;28;20517;-90
2023/05/18 07:18:41;;;;;;;;;;;;;;;;;;;;;
2023/05/18 07:21:11;;;;;;;17.77;5.83;;;;;;;39.14;35.28;101189.91;5014129;28;20452;-81
2023/05/18 07:23:37;;;;;;;13.23;5.60;;;;;;;39.21;35.00;101203.88;4998299;28;20522;-87
2023/05/18 07:26:03;;;;;;;14.43;5.47;;;;;;;39.16;35.46;101209.44;5057678;28;20491;-87
2023/05/18 07:28:29;;;;;;;14.73;8.53;;;;;;;39.27;35.55;101222.78;5057351;28;20422;-84
2023/05/18 07:30:55;;;;;;;12.20;8.70;;;;;;;39.51;35.54;101245.00;5061351;28;20470;-88
2023/05/18 07:33:21;;;;;;;9.97;4.77;;;;;;;39.43;36.02;101222.13;5057032;28;20430;-88
2023/05/18 07:35:47;;;;;;;9.07;5.23;;;;;;;39.53;35.05;101220.25;5057617;28;20429;-91
2023/05/18 07:38:13;;;;;;;9.73;4.87;;;;;;;39.61;34.80;101222.28;5057720;28;20520;-90
2023/05/18 07:40:39;;;;;;;9.03;5.10;;;;;;;39.60;35.32;101226.91;5075589;28;20410;-88
2023/05/18 07:43:10;;;;;;;11.67;5.00;;;;;;;39.71;34.85;101233.66;5057394;28;20483;-88
2023/05/18 07:45:36;;;;;;;11.50;5.30;;;;;;;39.49;35.36;101211.94;5057609;28;20461;-90
2023/05/18 07:48:02;;;;;;;15.07;6.27;;;;;;;39.57;35.24;101235.63;5056850;28;20437;-87
2023/05/18 07:50:31;;;;;;;11.27;4.50;;;;;;;39.55;35.12;101229.72;5056303;28;20794;-88
2023/05/18 07:52:57;;;;;;;9.60;5.10;;;;;;;39.79;34.96;101239.47;5056944;28;20437;-85
2023/05/18 07:55:23;;;;;;;9.83;5.23;;;;;;;39.43;35.44;101221.31;5056695;28;20426;-87
2023/05/18 07:57:48;;;;;;;10.00;5.53;;;;;;;39.67;35.02;101245.47;5060224;28;20581;-86
2023/05/18 08:00:16;;;;;;;13.90;8.67;;;;;;;39.13;36.02;101241.78;5069561;28;20191;-88
2023/05/18 08:02:44;;;;;;;13.67;6.20;;;;;;;39.33;35.07;101238.63;5056665;28;20203;-85
2023/05/18 08:05:10;;;;;;;13.50;6.60;;;;;;;39.61;35.26;101252.94;5073871;28;20481;-88
2023/05/18 08:07:36;;;;;;;9.30;5.10;;;;;;;39.68;35.71;101256.03;5075732;28;20433;-88
2023/05/18 08:10:02;;;;;;;10.87;5.90;;;;;;;39.54;35.90;101255.25;5060260;28;20437;-87
2023/05/18 08:12:31;;;;;;;11.70;6.00;;;;;;;39.54;35.73;101257.16;5055921;28;20873;-86
2023/05/18 08:14:57;;;;;;;11.07;6.60;;;;;;;39.83;35.40;101256.75;5056328;28;20513;-87
2023/05/18 08:17:25;;;;;;;16.37;9.83;;;;;;;39.90;35.04;101255.22;5055944;28;20494;-89
2023/05/18 08:19:52;;;;;;;19.87;8.20;;;;;;;39.93;35.14;101254.56;5029536;28;20433;-87
2023/05/18 08:22:18;;;;;;;12.43;8.40;;;;;;;39.92;34.74;101260.31;5056156;28;20516;-87
2023/05/18 08:24:44;;;;;;;13.23;6.80;;;;;;;39.93;34.02;101240.19;5055638;28;20906;-83
2023/05/18 08:27:10;;;;;;;11.70;7.70;;;;;;;39.90;34.75;101247.06;5074736;28;20974;-85
2023/05/18 08:29:36;;;;;;;18.77;13.67;;;;;;;39.79;35.03;101237.56;5059831;28;21006;-85
2023/05/18 08:32:05;;;;;;;13.40;9.10;;;;;;;39.83;35.13;101254.81;5055905;28;21062;-84
2023/05/18 08:34:31;;;;;;;12.10;8.53;;;;;;;39.93;34.71;101243.72;5055826;28;21003;-85
2023/05/18 08:36:58;;;;;;;13.93;8.33;;;;;;;40.07;34.15;101246.38;5055695;28;20425;-85
2023/05/18 08:39:24;;;;;;;16.87;7.97;;;;;;;39.99;34.39;101247.09;5056752;28;20445;-85
2023/05/18 08:41:50;;;;;;;13.30;7.30;;;;;;;39.83;34.26;101245.88;5055626;28;20440;-86
2023/05/18 08:44:37;;;;;;;15.20;8.33;;;;;;;39.99;34.40;101245.19;5070509;28;20500;-84
2023/05/18 08:47:08;;;;;;;19.33;7.37;;;;;;;39.90;34.59;101248.94;5054268;28;20197;-85
2023/05/18 08:49:35;;;;;;;13.17;6.77;;;;;;;39.73;34.70;101239.59;5057007;28;20816;-88
2023/05/18 08:52:03;;;;;;;10.53;6.73;;;;;;;39.36;35.11;101232.59;5055664;28;20426;-86
2023/05/18 08:54:30;;;;;;;10.93;8.33;;;;;;;39.35;34.86;101247.28;5055545;28;20471;-85
2023/05/18 08:56:57;;;;;;;18.03;6.30;;;;;;;39.58;34.49;101252.72;5073134;28;20429;-85
2023/05/18 08:59:30;;;;;;;12.27;6.67;;;;;;;39.76;33.71;101263.41;5057604;28;21285;-85
2023/05/18 09:01:57;;;;;;;12.10;7.63;;;;;;;39.90;33.44;101243.53;5055244;28;20498;-85
2023/05/18 09:04:23;;;;;;;14.73;8.40;;;;;;;40.02;33.82;101247.28;5055182;28;20536;-85
2023/05/18 09:06:52;;;;;;;13.47;9.00;;;;;;;40.09;33.83;101254.22;5055203;28;21149;-87
2023/05/18 09:09:20;;;;;;;11.27;7.30;;;;;;;40.05;33.90;101254.03;5055937;28;20421;-86
2023/05/18 09:11:47;;;;;;;15.00;8.63;;;;;;;40.14;34.29;101260.31;5054843;28;20426;-85
2023/05/18 09:14:13;;;;;;;16.70;9.20;;;;;;;40.10;34.59;101263.97;5055235;28;20445;-84
2023/05/18 09:16:39;;;;;;;14.47;10.20;;;;;;;40.08;34.66;101261.56;5052965;28;20434;-85
2023/05/18 09:19:05;;;;;;;16.30;11.03;;;;;;;40.11;33.90;101269.09;5054209;28;20434;-84
2023/05/18 09:21:31;;;;;;;17.00;8.70;;;;;;;40.01;33.76;101274.75;5053760;28;20410;-84
2023/05/18 09:23:59;;;;;;;15.10;8.43;;;;;;;40.01;34.16;101275.53;5055153;28;20980;-86
2023/05/18 09:26:26;;;;;;;18.73;7.87;;;;;;;40.08;34.07;101269.69;5054127;28;20926;-86
2023/05/18 09:28:53;;;;;;;11.03;7.10;;;;;;;40.13;33.95;101261.41;5054853;28;21072;-87
2023/05/18 09:31:21;;;;;;;16.47;8.20;;;;;;;40.04;34.30;101268.75;5055325;28;21019;-85
2023/05/18 09:33:47;;;;;;;23.03;9.57;;;;;;;40.11;34.47;101263.66;5054979;28;20418;-85
2023/05/18 09:36:14;;;;;;;12.80;7.07;;;;;;;40.11;33.82;101263.66;5054163;28;20521;-87
2023/05/18 09:38:44;;;;;;;14.03;9.20;;;;;;;40.00;33.61;101254.13;5054275;28;20437;-86
2023/05/18 09:41:15;;;;;;;15.97;9.43;;;;;;;40.13;34.18;101268.78;5053403;28;20590;-87
2023/05/18 09:43:42;;;;;;;17.97;11.00;;;;;;;40.33;33.82;101260.09;5052771;28;20459;-87
2023/05/18 09:46:10;;;;;;;16.57;10.97;;;;;;;40.23;34.18;101253.00;5053223;28;20429;-84
2023/05/18 09:48:50;;;;;;;18.60;11.33;;;;;;;39.87;34.40;101253.09;5053389;28;20422;-86
2023/05/18 09:51:17;;;;;;;18.50;9.37;;;;;;;40.18;34.08;101252.34;5044311;28;20433;-87
2023/05/18 09:53:57;;;;;;;19.70;9.70;;;;;;;40.38;34.10;101254.50;5054081;28;20426;-87
2023/05/18 09:56:25;;;;;;;16.07;11.10;;;;;;;40.46;33.59;101263.81;5054355;28;21010;-87
2023/05/18 09:58:54;;;;;;;17.70;9.07;;;;;;;40.54;32.86;101260.34;5054090;28;20968;-83
2023/05/18 10:01:20;;;;;;;18.23;9.67;;;;;;;40.40;33.62;101262.34;5054240;28;20599;-85
2023/05/18 10:03:48;;;;;;;16.10;8.57;;;;;;;40.31;33.26;101250.63;5054028;28;20955;-88
2023/05/18 10:06:18;;;;;;;13.90;8.00;;;;;;;40.39;33.51;101236.25;5054102;28;20445;-85
2023/05/18 10:08:45;;;;;;;13.90;8.17;;;;;;;40.24;33.40;101235.56;5054367;28;20977;-89
2023/05/18 10:11:11;;;;;;;17.63;9.40;;;;;;;40.51;34.14;101236.50;5061715;28;20942;-89
2023/05/18 10:13:37;;;;;;;18.93;9.10;;;;;;;40.72;33.25;101240.25;5053911;28;20441;-84
2023/05/18 10:16:06;;;;;;;17.20;10.57;;;;;;;40.66;33.07;101233.34;5054281;28;20827;-85
2023/05/18 10:18:36;;;;;;;13.77;8.50;;;;;;;40.72;33.71;101245.69;5053651;28;20421;-85
2023/05/18 10:21:05;;;;;;;14.20;8.03;;;;;;;40.73;33.63;101230.16;5071622;28;20425;-86
2023/05/18 10:23:36;;;;;;;15.10;9.47;;;;;;;40.87;33.29;101228.09;5054400;28;20496;-87
2023/05/18 10:26:08;;;;;;;15.93;9.47;;;;;;;40.87;33.32;101222.66;5053794;28;20434;-86
2023/05/18 10:28:41;;;;;;;16.37;9.07;;;;;;;41.00;32.94;101208.13;5059273;28;20429;-84
2023/05/18 10:31:08;;;;;;;16.73;10.27;;;;;;;41.22;33.42;101225.44;5055355;28;20963;-87
2023/05/18 10:33:36;;;;;;;14.23;9.03;;;;;;;40.98;33.60;101220.47;5053624;28;20990;-85
2023/05/18 10:36:04;;;;;;;17.70;9.40;;;;;;;40.92;32.63;101221.75;5053950;28;20432;-85
2023/05/18 10:38:30;;;;;;;18.43;9.00;;;;;;;41.00;33.15;101219.00;5053922;28;20449;-87
2023/05/18 10:40:59;;;;;;;12.23;7.63;;;;;;;40.99;33.16;101211.19;5069361;28;20456;-85
2023/05/18 10:43:26;;;;;;;12.40;7.17;;;;;;;41.19;32.97;101213.28;5053923;28;20479;-86
2023/05/18 10:45:59;;;;;;;14.73;7.77;;;;;;;40.55;34.02;101210.28;5054151;28;20836;-86
2023/05/18 10:48:26;;;;;;;14.03;7.03;;;;;;;40.72;33.01;101201.38;5057628;28;20418;-86
2023/05/18 10:50:55;;;;;;;12.70;6.13;;;;;;;41.09;33.44;101205.44;5063571;28;20957;-85
2023/05/18 10:53:28;;;;;;;13.97;6.67;;;;;;;41.07;33.81;101205.75;5058019;28;20428;-87
2023/05/18 10:55:54;;;;;;;10.43;6.60;;;;;;;40.76;34.24;101181.38;5068266;28;20427;-85
2023/05/18 10:58:23;;;;;;;15.67;7.00;;;;;;;40.99;33.86;101197.56;5058298;28;20536;-85
2023/05/18 11:00:53;;;;;;;13.63;7.30;;;;;;;41.02;33.20;101183.34;5066306;28;20430;-85
2023/05/18 11:03:19;;;;;;;14.20;7.47;;;;;;;41.03;32.85;101168.63;5057436;28;20960;-86
2023/05/18 11:06:13;;;;;;;14.33;6.63;;;;;;;40.87;33.48;101175.59;5057696;28;20441;-85
2023/05/18 11:08:47;;;;;;;11.97;6.83;;;;;;;40.89;32.91;101187.78;5055089;28;20433;-85
2023/05/18 11:11:14;;;;;;;13.67;6.83;;;;;;;40.76;33.07;101186.00;5063603;28;20524;-87
2023/05/18 11:13:50;;;;;;;13.47;8.60;;;;;;;40.76;33.75;101186.00;5057219;28;20917;-84
2023/05/18 11:16:17;;;;;;;11.70;5.13;;;;;;;40.91;32.47;101190.22;5075541;28;20444;-85
2023/05/18 11:18:49;;;;;;;11.80;6.57;;;;;;;41.08;33.00;101193.75;5053907;28;20955;-85
2023/05/18 11:21:24;;;;;;;11.90;6.40;;;;;;;40.79;33.56;101202.50;5057785;28;20422;-88
2023/05/18 11:24:22;;;;;;;10.53;5.63;;;;;;;41.00;33.16;101193.72;5057969;28;20459;-87
2023/05/18 11:26:56;;;;;;;15.93;7.30;;;;;;;40.98;33.61;101182.38;5046588;28;20487;-87
2023/05/18 11:29:35;;;;;;;15.60;7.13;;;;;;;41.08;33.93;101173.91;5057238;28;20431;-86